createdAt,value
2018-08-18T00:01:57.391Z,5.30
2018-08-18T00:04:32.129Z,4.57
2018-08-18T00:07:00.292Z,4.50
2018-08-18T00:09:27.529Z,3.70
2018-08-18T00:11:55.008Z,3.73
2018-08-18T00:14:22.345Z,4.03
2018-08-18T00:16:49.628Z,4.63
2018-08-18T00:19:16.915Z,6.77
2018-08-18T00:21:44.137Z,4.37
2018-08-18T00:24:11.991Z,5.70
2018-08-18T00:26:39.233Z,5.73
2018-08-18T00:29:07.236Z,5.87
2018-08-18T00:31:34.496Z,4.83
2018-08-18T00:34:01.787Z,5.37
2018-08-18T00:36:29.067Z,4.40
2018-08-18T00:38:57.943Z,6.73
2018-08-18T00:41:26.540Z,5.60
2018-08-18T00:43:53.807Z,8.13
2018-08-18T00:46:21.056Z,5.03
2018-08-18T00:48:48.295Z,8.57
2018-08-18T00:51:16.330Z,4.70
2018-08-18T00:53:44.561Z,5.57
2018-08-18T00:56:11.801Z,8.67
2018-08-18T00:58:39.868Z,5.40
2018-08-18T01:01:07.124Z,6.10
2018-08-18T01:03:42.576Z,7.03
2018-08-18T01:06:17.999Z,8.17
2018-08-18T01:08:45.560Z,6.37
2018-08-18T01:11:13.533Z,6.40
2018-08-18T01:13:40.830Z,5.43
2018-08-18T01:16:08.003Z,5.30
2018-08-18T01:18:35.288Z,8.60
2018-08-18T01:21:02.611Z,6.00
2018-08-18T01:23:29.872Z,7.63
2018-08-18T01:25:57.148Z,7.00
2018-08-18T01:28:24.489Z,4.53
2018-08-18T01:31:01.555Z,8.27
2018-08-18T01:33:28.774Z,6.50
2018-08-18T01:35:56.027Z,5.93
2018-08-18T01:38:23.276Z,6.67
2018-08-18T01:40:50.554Z,6.73
2018-08-18T01:43:17.817Z,9.80
2018-08-18T01:45:45.055Z,6.40
2018-08-18T01:48:12.399Z,6.63
2018-08-18T01:50:39.635Z,6.70
2018-08-18T01:53:06.912Z,7.90
2018-08-18T01:55:34.180Z,7.33
2018-08-18T01:58:01.741Z,7.40
2018-08-18T02:00:29.023Z,6.90
2018-08-18T02:02:56.274Z,9.37
2018-08-18T02:05:23.505Z,6.20
2018-08-18T02:07:50.776Z,7.80
2018-08-18T02:10:18.016Z,7.67
2018-08-18T02:12:50.848Z,7.10
2018-08-18T02:15:18.093Z,7.80
2018-08-18T02:17:45.333Z,6.00
2018-08-18T02:20:12.548Z,7.47
2018-08-18T02:22:39.795Z,8.20
2018-08-18T02:25:07.028Z,6.87
2018-08-18T02:27:34.351Z,7.47
2018-08-18T02:30:07.121Z,6.70
2018-08-18T02:32:35.904Z,5.70
2018-08-18T02:35:03.233Z,7.40
2018-08-18T02:37:31.051Z,8.77
2018-08-18T02:39:58.343Z,6.83
2018-08-18T02:42:25.573Z,6.83
2018-08-18T02:44:53.185Z,6.80
2018-08-18T02:47:20.632Z,8.10
2018-08-18T02:49:50.065Z,7.40
2018-08-18T02:52:24.551Z,7.20
2018-08-18T02:54:52.966Z,6.03
2018-08-18T02:57:20.300Z,7.30
2018-08-18T02:59:47.553Z,7.07
2018-08-18T03:02:14.797Z,6.00
2018-08-18T03:04:48.309Z,9.37
2018-08-18T03:07:15.609Z,7.10
2018-08-18T03:09:43.129Z,7.10
2018-08-18T03:12:10.368Z,7.73
2018-08-18T03:14:38.632Z,6.80
2018-08-18T03:17:06.260Z,8.30
2018-08-18T03:19:33.531Z,7.20
2018-08-18T03:22:00.768Z,6.63
2018-08-18T03:24:28.012Z,7.73
2018-08-18T03:26:56.362Z,6.57
2018-08-18T03:29:25.727Z,6.57
2018-08-18T03:31:53.488Z,9.07
2018-08-18T03:34:20.915Z,6.00
2018-08-18T03:36:49.340Z,7.37
2018-08-18T03:39:22.345Z,6.40
2018-08-18T03:41:49.628Z,6.20
2018-08-18T03:44:16.894Z,6.57
2018-08-18T03:46:44.138Z,7.53
2018-08-18T03:49:11.400Z,7.97
2018-08-18T03:51:47.695Z,6.57
2018-08-18T03:54:14.950Z,6.97
2018-08-18T03:56:42.499Z,8.00
2018-08-18T03:59:09.701Z,8.47
2018-08-18T04:01:42.480Z,7.80
2018-08-18T04:04:10.808Z,8.63
2018-08-18T04:06:40.001Z,7.13
2018-08-18T04:09:09.828Z,8.17
2018-08-18T04:11:37.593Z,7.53
2018-08-18T04:14:04.804Z,7.73
2018-08-18T04:16:32.052Z,8.90
2018-08-18T04:19:02.906Z,10.07
2018-08-18T04:21:32.527Z,8.30
2018-08-18T04:23:59.769Z,8.57
2018-08-18T04:26:27.110Z,8.17
2018-08-18T04:28:54.680Z,7.70
2018-08-18T04:31:27.457Z,9.17
2018-08-18T04:33:54.692Z,12.30
2018-08-18T04:36:21.956Z,9.27
2018-08-18T04:38:49.184Z,8.00
2018-08-18T04:41:16.436Z,7.60
2018-08-18T04:43:43.718Z,8.30
2018-08-18T04:46:10.964Z,11.37
2018-08-18T04:48:38.242Z,9.00
2018-08-18T04:51:06.296Z,10.47
2018-08-18T04:53:33.524Z,10.77
2018-08-18T04:56:00.800Z,9.63
2018-08-18T04:58:28.036Z,8.30
2018-08-18T05:00:55.648Z,11.47
2018-08-18T05:03:22.947Z,9.60
2018-08-18T05:05:50.249Z,8.60
2018-08-18T05:08:17.563Z,9.50
2018-08-18T05:10:44.796Z,8.83
2018-08-18T05:13:12.076Z,8.93
2018-08-18T05:15:39.324Z,9.43
2018-08-18T05:18:06.551Z,7.53
2018-08-18T05:20:33.803Z,10.30
2018-08-18T05:23:10.814Z,8.70
2018-08-18T05:25:40.211Z,7.73
2018-08-18T05:28:07.449Z,9.37
2018-08-18T05:30:34.723Z,10.10
2018-08-18T05:33:02.052Z,11.47
2018-08-18T05:35:29.312Z,9.60
2018-08-18T05:37:56.540Z,9.50
2018-08-18T05:40:23.824Z,12.93
2018-08-18T05:42:51.056Z,9.53
2018-08-18T05:45:22.719Z,10.63
2018-08-18T05:47:50.683Z,10.20
2018-08-18T05:50:17.937Z,10.20
2018-08-18T05:52:46.130Z,10.20
2018-08-18T05:55:13.365Z,11.17
2018-08-18T05:57:40.598Z,11.13
2018-08-18T06:00:13.161Z,10.83
2018-08-18T06:02:44.713Z,11.33
2018-08-18T06:05:11.945Z,10.23
2018-08-18T06:07:39.209Z,10.47
2018-08-18T06:10:06.453Z,11.00
2018-08-18T06:12:33.761Z,9.10
2018-08-18T06:15:02.193Z,10.23
2018-08-18T06:17:31.365Z,12.20
2018-08-18T06:19:58.951Z,10.50
2018-08-18T06:22:26.168Z,9.23
2018-08-18T06:24:53.428Z,11.33
2018-08-18T06:27:24.088Z,11.43
2018-08-18T06:29:51.429Z,8.87
2018-08-18T06:32:18.660Z,9.43
2018-08-18T06:34:45.999Z,10.03
2018-08-18T06:37:13.183Z,11.27
2018-08-18T06:39:49.828Z,9.03
2018-08-18T06:42:23.442Z,10.20
2018-08-18T06:44:50.667Z,9.20
2018-08-18T06:47:17.892Z,10.03
2018-08-18T06:49:45.181Z,8.60
2018-08-18T06:52:14.116Z,10.50
2018-08-18T06:54:41.471Z,8.83
2018-08-18T06:57:08.855Z,8.10
2018-08-18T06:59:35.960Z,10.10
2018-08-18T07:02:03.264Z,10.47
2018-08-18T07:04:30.516Z,8.33
2018-08-18T07:06:57.769Z,8.20
2018-08-18T07:09:25.040Z,8.63
2018-08-18T07:11:52.365Z,7.73
2018-08-18T07:14:19.616Z,8.87
2018-08-18T07:16:46.910Z,9.53
2018-08-18T07:19:14.184Z,8.03
2018-08-18T07:21:41.433Z,7.37
2018-08-18T07:24:08.728Z,9.60
2018-08-18T07:26:36.024Z,8.73
2018-08-18T07:29:03.466Z,7.23
2018-08-18T07:31:30.628Z,6.50
2018-08-18T07:33:57.881Z,6.50
2018-08-18T07:36:25.137Z,6.13
2018-08-18T07:38:52.390Z,8.17
2018-08-18T07:41:21.290Z,8.03
2018-08-18T07:43:48.550Z,6.33
2018-08-18T07:46:15.796Z,6.40
2018-08-18T07:48:43.028Z,6.50
2018-08-18T07:51:10.255Z,8.10
2018-08-18T07:53:37.518Z,6.77
2018-08-18T07:56:04.776Z,6.27
2018-08-18T07:58:32.013Z,9.87
2018-08-18T08:01:00.649Z,7.87
2018-08-18T08:03:27.892Z,7.57
2018-08-18T08:05:55.148Z,6.33
2018-08-18T08:08:22.404Z,7.20
2018-08-18T08:10:49.706Z,6.90
2018-08-18T08:13:16.943Z,8.07
2018-08-18T08:15:44.183Z,7.53
2018-08-18T08:18:12.045Z,7.57
2018-08-18T08:20:39.252Z,7.70
2018-08-18T08:23:06.492Z,7.10
2018-08-18T08:25:33.772Z,7.73
2018-08-18T08:28:01.080Z,6.10
2018-08-18T08:30:28.356Z,5.40
2018-08-18T08:32:55.656Z,5.27
2018-08-18T08:35:22.929Z,5.93
2018-08-18T08:37:51.069Z,7.27
2018-08-18T08:40:18.924Z,5.90
2018-08-18T08:42:46.223Z,7.53
2018-08-18T08:45:14.840Z,6.00
2018-08-18T08:47:42.536Z,5.27
2018-08-18T08:50:11.457Z,5.67
2018-08-18T08:52:57.512Z,7.10
2018-08-18T08:55:26.050Z,6.20
2018-08-18T08:57:53.285Z,4.90
2018-08-18T09:00:20.540Z,6.70
2018-08-18T09:02:47.816Z,6.10
2018-08-18T09:05:15.075Z,8.60
2018-08-18T09:07:42.632Z,4.43
2018-08-18T09:10:10.798Z,3.67
2018-08-18T09:12:38.568Z,4.87
2018-08-18T09:15:06.320Z,3.23
2018-08-18T09:17:33.590Z,3.43
2018-08-18T09:20:00.864Z,3.93
2018-08-18T09:22:28.831Z,3.00
2018-08-18T09:24:56.676Z,5.30
2018-08-18T09:27:23.957Z,3.87
2018-08-18T09:29:51.208Z,4.37
2018-08-18T09:32:18.950Z,5.60
2018-08-18T09:34:53.385Z,7.50
2018-08-18T09:37:21.911Z,4.33
2018-08-18T09:39:49.191Z,5.93
2018-08-18T09:42:17.030Z,4.40
2018-08-18T09:44:45.755Z,5.83
2018-08-18T09:47:13.696Z,4.67
2018-08-18T09:49:41.052Z,5.10
2018-08-18T09:52:09.160Z,5.70
2018-08-18T09:54:36.440Z,14.83
2018-08-18T09:57:03.780Z,4.23
2018-08-18T09:59:31.059Z,3.60
2018-08-18T10:01:58.359Z,4.27
2018-08-18T10:04:25.740Z,2.57
2018-08-18T10:06:54.011Z,3.13
2018-08-18T10:09:21.414Z,5.53
2018-08-18T10:11:48.717Z,4.23
2018-08-18T10:14:16.020Z,7.93
2018-08-18T10:16:43.284Z,4.10
2018-08-18T10:19:10.524Z,3.43
2018-08-18T10:21:37.832Z,6.73
2018-08-18T10:24:05.128Z,3.10
2018-08-18T10:26:32.402Z,5.57
2018-08-18T10:29:10.324Z,5.77
2018-08-18T10:31:42.449Z,6.67
2018-08-18T10:34:09.718Z,5.13
2018-08-18T10:36:37.025Z,4.60
2018-08-18T10:39:05.596Z,5.47
2018-08-18T10:41:32.989Z,5.10
2018-08-18T10:44:00.270Z,3.93
2018-08-18T10:46:27.618Z,4.70
2018-08-18T10:48:54.845Z,13.37
2018-08-18T10:51:27.653Z,5.70
2018-08-18T10:53:54.917Z,4.53
2018-08-18T10:56:22.578Z,5.47
2018-08-18T10:58:59.876Z,5.60
2018-08-18T11:01:27.208Z,4.10
2018-08-18T11:03:54.486Z,4.20
2018-08-18T11:06:26.067Z,4.87
2018-08-18T11:08:53.332Z,5.40
2018-08-18T11:11:20.629Z,3.37
2018-08-18T11:13:47.871Z,3.47
2018-08-18T11:16:15.572Z,5.53
2018-08-18T11:18:42.856Z,3.60
2018-08-18T11:21:10.106Z,5.57
2018-08-18T11:23:37.375Z,5.27
2018-08-18T11:26:04.633Z,4.03
2018-08-18T11:28:31.965Z,3.97
2018-08-18T11:30:59.144Z,5.10
2018-08-18T11:33:44.544Z,3.20
2018-08-18T11:36:12.388Z,9.00
2018-08-18T11:38:39.740Z,6.77
2018-08-18T11:41:06.988Z,6.33
2018-08-18T11:43:35.629Z,5.93
2018-08-18T11:46:02.901Z,5.00
2018-08-18T11:48:30.165Z,4.53
2018-08-18T11:50:57.712Z,3.00
2018-08-18T11:53:24.998Z,4.60
2018-08-18T11:55:52.295Z,3.50
2018-08-18T11:58:20.732Z,2.67
2018-08-18T12:00:49.518Z,5.70
2018-08-18T12:03:19.016Z,6.93
2018-08-18T12:05:48.217Z,4.80
2018-08-18T12:08:16.821Z,2.87
2018-08-18T12:10:44.136Z,4.63
2018-08-18T12:13:11.412Z,3.40
2018-08-18T12:15:44.493Z,2.70
2018-08-18T12:18:11.742Z,5.13
2018-08-18T12:20:38.986Z,4.33
2018-08-18T12:23:06.221Z,3.37
2018-08-18T12:25:33.488Z,5.20
2018-08-18T12:28:00.736Z,4.97
2018-08-18T12:30:32.765Z,6.03
2018-08-18T12:33:00.127Z,7.37
2018-08-18T12:35:32.060Z,3.73
2018-08-18T12:37:59.396Z,4.70
2018-08-18T12:40:26.645Z,5.50
2018-08-18T12:42:53.904Z,2.57
2018-08-18T12:45:21.200Z,7.67
2018-08-18T12:47:54.132Z,4.60
2018-08-18T12:50:22.313Z,4.67
2018-08-18T12:52:49.548Z,4.90
2018-08-18T12:55:17.098Z,4.70
2018-08-18T12:57:44.576Z,3.30
2018-08-18T13:00:11.920Z,4.83
2018-08-18T13:02:41.877Z,6.47
2018-08-18T13:05:09.207Z,3.83
2018-08-18T13:07:40.749Z,3.70
2018-08-18T13:10:09.052Z,2.60
2018-08-18T13:12:36.332Z,4.80
2018-08-18T13:15:03.596Z,7.50
2018-08-18T13:17:30.998Z,4.40
2018-08-18T13:19:58.258Z,3.70
2018-08-18T13:22:25.516Z,3.63
2018-08-18T13:24:52.835Z,7.53
2018-08-18T13:27:20.109Z,4.53
2018-08-18T13:29:47.353Z,2.93
2018-08-18T13:32:14.629Z,3.37
2018-08-18T13:34:41.862Z,2.40
2018-08-18T13:37:09.147Z,2.57
2018-08-18T13:39:36.384Z,3.07
2018-08-18T13:42:09.392Z,5.77
2018-08-18T13:44:36.660Z,5.73
2018-08-18T13:47:03.938Z,2.60
2018-08-18T13:49:31.193Z,3.63
2018-08-18T13:51:58.460Z,4.93
2018-08-18T13:54:25.709Z,4.63
2018-08-18T13:56:52.933Z,5.30
2018-08-18T13:59:29.985Z,3.73
2018-08-18T14:01:57.268Z,3.97
2018-08-18T14:04:29.735Z,3.57
2018-08-18T14:06:56.993Z,4.50
2018-08-18T14:09:24.373Z,3.83
2018-08-18T14:11:54.469Z,4.43
2018-08-18T14:14:21.733Z,3.60
2018-08-18T14:16:50.139Z,3.10
2018-08-18T14:19:17.390Z,5.17
2018-08-18T14:21:44.699Z,3.13
2018-08-18T14:24:11.989Z,4.87
2018-08-18T14:26:40.953Z,7.23
2018-08-18T14:29:08.213Z,5.40
2018-08-18T14:31:35.481Z,8.73
2018-08-18T14:34:02.783Z,6.63
2018-08-18T14:36:29.982Z,4.50
2018-08-18T14:38:57.240Z,3.40
2018-08-18T14:41:39.884Z,3.73
2018-08-18T14:44:07.327Z,4.60
2018-08-18T14:46:34.682Z,3.37
2018-08-18T14:49:01.872Z,6.50
2018-08-18T14:51:29.157Z,4.53
2018-08-18T14:53:56.444Z,4.10
2018-08-18T14:56:23.746Z,2.83
2018-08-18T14:58:51.000Z,4.00
2018-08-18T15:01:18.264Z,6.43
2018-08-18T15:03:45.515Z,4.23
2018-08-18T15:06:13.174Z,4.47
2018-08-18T15:08:40.488Z,4.77
2018-08-18T15:11:07.752Z,2.60
2018-08-18T15:13:35.020Z,2.93
2018-08-18T15:16:02.287Z,4.50
2018-08-18T15:18:29.590Z,1.97
2018-08-18T15:20:56.843Z,3.00
2018-08-18T15:23:24.095Z,4.63
2018-08-18T15:25:51.368Z,7.37
2018-08-18T15:28:19.804Z,3.80
2018-08-18T15:30:49.300Z,4.20
2018-08-18T15:33:17.677Z,5.03
2018-08-18T15:35:44.927Z,4.63
2018-08-18T15:38:12.475Z,6.27
2018-08-18T15:40:39.945Z,2.00
2018-08-18T15:43:07.282Z,3.87
2018-08-18T15:45:41.279Z,4.13
2018-08-18T15:48:08.576Z,5.23
2018-08-18T15:50:35.830Z,5.10
2018-08-18T15:53:03.113Z,4.83
2018-08-18T15:55:30.373Z,4.87
2018-08-18T15:57:57.621Z,2.63
2018-08-18T16:00:30.547Z,2.33
2018-08-18T16:02:58.621Z,6.33
2018-08-18T16:05:26.543Z,2.73
2018-08-18T16:07:54.357Z,2.43
2018-08-18T16:10:21.907Z,5.87
2018-08-18T16:12:49.590Z,2.90
2018-08-18T16:15:16.890Z,4.80
2018-08-18T16:17:44.167Z,4.80
2018-08-18T16:20:16.573Z,6.60
2018-08-18T16:22:43.927Z,2.03
2018-08-18T16:25:16.873Z,2.40
2018-08-18T16:27:44.134Z,7.10
2018-08-18T16:30:11.383Z,2.23
2018-08-18T16:32:38.705Z,5.40
2018-08-18T16:35:11.016Z,6.83
2018-08-18T16:37:41.091Z,2.23
2018-08-18T16:40:08.365Z,7.47
2018-08-18T16:42:35.643Z,4.37
2018-08-18T16:45:02.876Z,6.40
2018-08-18T16:47:30.780Z,4.70
2018-08-18T16:49:58.023Z,1.87
2018-08-18T16:52:25.280Z,3.53
2018-08-18T16:54:52.583Z,10.47
2018-08-18T16:57:19.849Z,5.03
2018-08-18T16:59:47.113Z,4.30
2018-08-18T17:02:24.295Z,6.30
2018-08-18T17:04:51.539Z,7.90
2018-08-18T17:07:23.140Z,5.13
2018-08-18T17:09:50.432Z,5.97
2018-08-18T17:12:20.555Z,4.63
2018-08-18T17:14:48.133Z,5.27
2018-08-18T17:17:15.411Z,3.97
2018-08-18T17:19:42.725Z,5.30
2018-08-18T17:22:11.368Z,4.40
2018-08-18T17:24:38.636Z,4.00
2018-08-18T17:27:05.986Z,8.30
2018-08-18T17:29:34.990Z,6.07
2018-08-18T17:32:02.247Z,5.33
2018-08-18T17:34:29.532Z,6.40
2018-08-18T17:36:56.894Z,6.67
2018-08-18T17:39:24.202Z,7.00
2018-08-18T17:41:51.516Z,8.60
2018-08-18T17:44:18.786Z,9.57
2018-08-18T17:46:52.033Z,5.13
2018-08-18T17:49:19.599Z,8.80
2018-08-18T17:51:57.062Z,5.13
2018-08-18T17:54:24.336Z,8.63
2018-08-18T17:56:51.643Z,5.23
2018-08-18T17:59:18.949Z,8.60
2018-08-18T18:01:55.984Z,7.07
2018-08-18T18:04:23.616Z,17.40
2018-08-18T18:06:50.939Z,12.17
2018-08-18T18:09:18.202Z,9.70
2018-08-18T18:11:45.464Z,11.67
2018-08-18T18:14:12.743Z,12.90
2018-08-18T18:16:40.001Z,12.77
2018-08-18T18:19:07.256Z,15.30
2018-08-18T18:21:34.517Z,10.00
2018-08-18T18:24:01.828Z,7.10
2018-08-18T18:26:29.807Z,10.60
2018-08-18T18:28:57.088Z,12.93
2018-08-18T18:31:24.343Z,8.07
2018-08-18T18:34:07.321Z,8.30
2018-08-18T18:36:34.946Z,7.10
2018-08-18T18:39:02.212Z,6.20
2018-08-18T18:41:29.467Z,5.23
2018-08-18T18:43:58.042Z,6.03
2018-08-18T18:46:25.395Z,6.67
2018-08-18T18:48:52.635Z,8.40
2018-08-18T18:51:19.906Z,9.70
2018-08-18T18:53:47.976Z,6.50
2018-08-18T18:56:15.226Z,6.00
2018-08-18T18:58:42.490Z,8.97
2018-08-18T19:01:09.897Z,9.70
2018-08-18T19:03:37.168Z,7.47
2018-08-18T19:06:04.455Z,7.20
2018-08-18T19:08:31.770Z,5.23
2018-08-18T19:11:02.145Z,6.50
2018-08-18T19:13:29.417Z,9.13
2018-08-18T19:15:56.780Z,5.60
2018-08-18T19:18:24.010Z,8.40
2018-08-18T19:20:51.295Z,7.70
2018-08-18T19:23:19.713Z,7.50
2018-08-18T19:25:48.296Z,6.90
2018-08-18T19:28:17.025Z,7.17
2018-08-18T19:30:44.284Z,7.97
2018-08-18T19:33:12.845Z,7.80
2018-08-18T19:35:42.125Z,6.60
2018-08-18T19:38:09.594Z,6.90
2018-08-18T19:40:38.083Z,9.30
2018-08-18T19:43:07.761Z,6.10
2018-08-18T19:45:35.052Z,6.37
2018-08-18T19:48:02.298Z,8.03
2018-08-18T19:50:29.530Z,7.83
2018-08-18T19:53:12.366Z,11.40
2018-08-18T19:55:39.652Z,10.97
2018-08-18T19:58:06.938Z,13.30
2018-08-18T20:00:34.185Z,11.07
2018-08-18T20:03:03.113Z,14.33
2018-08-18T20:05:30.379Z,9.83
2018-08-18T20:07:57.705Z,17.33
2018-08-18T20:10:25.051Z,7.70
2018-08-18T20:12:52.345Z,8.90
2018-08-18T20:15:19.638Z,8.93
2018-08-18T20:17:46.869Z,7.03
2018-08-18T20:20:18.724Z,10.20
2018-08-18T20:22:45.971Z,7.00
2018-08-18T20:25:13.249Z,7.67
2018-08-18T20:27:40.497Z,6.50
2018-08-18T20:30:07.765Z,7.77
2018-08-18T20:32:35.026Z,7.43
2018-08-18T20:35:02.471Z,6.10
2018-08-18T20:37:29.722Z,7.97
2018-08-18T20:39:56.985Z,7.50
2018-08-18T20:42:29.630Z,5.93
2018-08-18T20:44:58.449Z,5.47
2018-08-18T20:47:26.567Z,7.90
2018-08-18T20:49:54.170Z,5.90
2018-08-18T20:52:21.416Z,8.63
2018-08-18T20:54:48.689Z,8.47
2018-08-18T20:57:16.116Z,11.40
2018-08-18T20:59:43.411Z,8.87
2018-08-18T21:02:10.651Z,8.23
2018-08-18T21:04:38.532Z,6.23
2018-08-18T21:07:05.856Z,10.10
2018-08-18T21:09:33.250Z,7.80
2018-08-18T21:12:00.606Z,14.13
2018-08-18T21:14:28.244Z,6.83
2018-08-18T21:16:56.294Z,10.30
2018-08-18T21:19:25.508Z,7.80
2018-08-18T21:21:53.348Z,9.23
2018-08-18T21:24:20.589Z,6.73
2018-08-18T21:26:47.922Z,9.23
2018-08-18T21:29:15.154Z,7.07
2018-08-18T21:31:42.408Z,7.03
2018-08-18T21:34:09.670Z,7.07
2018-08-18T21:36:37.125Z,9.50
2018-08-18T21:39:06.916Z,8.07
2018-08-18T21:41:36.569Z,8.03
2018-08-18T21:44:04.393Z,7.27
2018-08-18T21:46:31.704Z,7.93
2018-08-18T21:49:00.300Z,7.90
2018-08-18T21:51:27.650Z,8.10
2018-08-18T21:53:54.921Z,10.50
2018-08-18T21:56:22.205Z,10.17
2018-08-18T21:58:49.925Z,9.40
2018-08-18T22:01:18.335Z,8.70
2018-08-18T22:03:45.985Z,9.40
2018-08-18T22:06:13.403Z,10.20
2018-08-18T22:08:40.666Z,7.83
2018-08-18T22:11:08.001Z,8.57
2018-08-18T22:13:41.071Z,7.10
2018-08-18T22:16:08.613Z,8.60
2018-08-18T22:18:35.881Z,8.73
2018-08-18T22:21:03.169Z,8.43
2018-08-18T22:23:30.432Z,8.47
2018-08-18T22:25:57.684Z,8.20
2018-08-18T22:28:24.947Z,10.97
2018-08-18T22:30:53.962Z,11.10
2018-08-18T22:33:21.960Z,9.80
2018-08-18T22:35:52.175Z,7.00
2018-08-18T22:38:19.464Z,7.17
2018-08-18T22:40:46.700Z,7.83
2018-08-18T22:43:14.105Z,7.67
2018-08-18T22:45:41.399Z,12.57
2018-08-18T22:48:08.671Z,8.57
2018-08-18T22:50:35.943Z,8.23
2018-08-18T22:53:03.189Z,8.00
2018-08-18T22:55:30.644Z,8.20
2018-08-18T22:58:00.941Z,12.70
2018-08-18T23:00:28.295Z,9.23
2018-08-18T23:02:55.547Z,8.20
2018-08-18T23:05:22.788Z,8.53
2018-08-18T23:07:51.212Z,8.20
2018-08-18T23:10:18.457Z,8.30
2018-08-18T23:12:45.713Z,10.73
2018-08-18T23:15:12.973Z,8.90
2018-08-18T23:17:40.245Z,10.70
2018-08-18T23:20:07.536Z,12.97
2018-08-18T23:22:46.689Z,9.53
2018-08-18T23:25:13.925Z,7.30
2018-08-18T23:27:41.181Z,14.70
2018-08-18T23:30:08.429Z,9.40
2018-08-18T23:32:35.668Z,9.37
2018-08-18T23:35:02.955Z,8.10
2018-08-18T23:37:30.181Z,8.60
2018-08-18T23:39:57.437Z,11.23
2018-08-18T23:42:25.434Z,9.27
2018-08-18T23:44:52.672Z,7.80
2018-08-18T23:47:20.328Z,8.80
2018-08-18T23:49:47.681Z,10.83
2018-08-18T23:52:15.087Z,8.90
2018-08-18T23:54:42.308Z,9.03
2018-08-18T23:57:09.576Z,8.40
2018-08-18T23:59:36.875Z,10.50
